Hewlett, New York
Current Conditions -  °F | °C
As of 11:51 PM on Monday 20 Oct 2014 (Local Time) from KJFK Reporting Station
Broken Clouds Broken Clouds  
Wind Chill: 58°   Ceiling: 23000
Heat Index: 58°   Visibility: 10mi
Dew Point: 45°   Wind: 13mph
Humidity: 62%   Direction: 220°SW
Pressure: 29.98"   Gusts: NA
Location:  40.64°N, 73.7°W
Report Text: KJFK 210351Z 22011KT 10SM FEW130 BKN230 14/07 A2998 RMK AO2 SLP153 T01440072
Loading
Personal Weather Stations






























Interactive Weather Map
Tropical Storm Tracking
New forecast layout! Learn more

10-Day Weather Forecast

Advertisements
Track Severe Weather on mobile